createdAt,value
2023-05-04T00:02:08.976Z,47.48
2023-05-04T00:04:35.894Z,47.54
2023-05-04T00:07:02.942Z,47.73
2023-05-04T00:09:29.824Z,47.62
2023-05-04T00:11:56.886Z,47.69
2023-05-04T00:14:23.743Z,47.79
2023-05-04T00:16:50.723Z,47.90
2023-05-04T00:19:19.685Z,47.94
2023-05-04T00:21:46.726Z,48.10
2023-05-04T00:24:13.624Z,48.10
2023-05-04T00:26:40.472Z,48.30
2023-05-04T00:29:07.333Z,48.33
2023-05-04T00:31:34.294Z,48.45
2023-05-04T00:34:01.142Z,48.38
2023-05-04T00:36:28.100Z,48.45
2023-05-04T00:38:56.169Z,48.58
2023-05-04T00:41:23.192Z,48.55
2023-05-04T00:43:50.207Z,48.84
2023-05-04T00:46:17.523Z,48.87
2023-05-04T00:48:48.747Z,48.98
2023-05-04T00:51:17.066Z,48.88
2023-05-04T00:53:44.294Z,49.16
2023-05-04T00:56:12.052Z,48.96
2023-05-04T00:58:38.984Z,48.93
2023-05-04T01:01:06.124Z,48.96
2023-05-04T01:03:34.216Z,49.04
2023-05-04T01:06:22.513Z,49.20
2023-05-04T01:09:00.292Z,49.43
2023-05-04T01:11:37.295Z,49.64
2023-05-04T01:14:07.102Z,49.59
2023-05-04T01:16:34.149Z,49.74
2023-05-04T01:19:01.372Z,49.86
2023-05-04T01:21:31.515Z,50.02
2023-05-04T01:23:59.317Z,49.83
2023-05-04T01:26:32.040Z,50.10
2023-05-04T01:29:02.496Z,49.69
2023-05-04T01:31:29.955Z,49.92
2023-05-04T01:33:57.704Z,49.94
2023-05-04T01:36:25.614Z,50.08
2023-05-04T01:38:58.040Z,50.00
2023-05-04T01:41:26.637Z,50.30
2023-05-04T01:43:54.821Z,50.30
2023-05-04T01:46:21.797Z,50.21
2023-05-04T01:48:48.685Z,50.23
2023-05-04T01:51:15.655Z,50.47
2023-05-04T01:53:42.560Z,50.43
2023-05-04T01:56:09.887Z,50.60
2023-05-04T01:58:37.072Z,50.56
2023-05-04T02:01:04.359Z,50.75
2023-05-04T02:03:31.716Z,50.68
2023-05-04T02:05:58.812Z,50.69
2023-05-04T02:08:26.679Z,50.57
2023-05-04T02:10:54.694Z,50.65
2023-05-04T02:13:22.360Z,51.05
2023-05-04T02:15:49.288Z,50.95
2023-05-04T02:18:17.524Z,50.88
2023-05-04T02:20:44.561Z,51.23
2023-05-04T02:23:14.699Z,51.02
2023-05-04T02:25:44.647Z,51.21
2023-05-04T02:28:12.861Z,51.44
2023-05-04T02:30:41.812Z,51.50
2023-05-04T02:33:09.424Z,51.34
2023-05-04T02:35:38.082Z,51.45
2023-05-04T02:38:06.253Z,51.37
